sensor_id;sensor_type;location;lat;lon;timestamp;P1;durP1;ratioP1;P2;durP2;ratioP2
53409;SDS011;66590;50.734;4.246;2023-08-30T00:00:24;8.13;;;6.00;;
53409;SDS011;66590;50.734;4.246;2023-08-30T00:02:52;9.68;;;6.53;;
53409;SDS011;66590;50.734;4.246;2023-08-30T00:05:19;7.18;;;5.80;;
53409;SDS011;66590;50.734;4.246;2023-08-30T00:07:46;10.35;;;6.45;;
53409;SDS011;66590;50.734;4.246;2023-08-30T00:10:13;6.68;;;5.68;;
53409;SDS011;66590;50.734;4.246;2023-08-30T00:12:42;9.65;;;6.60;;
53409;SDS011;66590;50.734;4.246;2023-08-30T00:15:09;11.18;;;6.75;;
53409;SDS011;66590;50.734;4.246;2023-08-30T00:17:36;8.40;;;6.43;;
53409;SDS011;66590;50.734;4.246;2023-08-30T00:20:05;8.07;;;7.28;;
53409;SDS011;66590;50.734;4.246;2023-08-30T00:22:33;8.30;;;6.78;;
53409;SDS011;66590;50.734;4.246;2023-08-30T00:25:00;8.25;;;6.68;;
53409;SDS011;66590;50.734;4.246;2023-08-30T00:27:27;8.23;;;7.43;;
53409;SDS011;66590;50.734;4.246;2023-08-30T00:29:54;7.97;;;6.97;;
53409;SDS011;66590;50.734;4.246;2023-08-30T00:32:21;10.43;;;7.65;;
53409;SDS011;66590;50.734;4.246;2023-08-30T00:34:49;9.75;;;7.68;;
53409;SDS011;66590;50.734;4.246;2023-08-30T00:37:18;8.18;;;7.38;;
53409;SDS011;66590;50.734;4.246;2023-08-30T00:39:45;9.90;;;7.88;;
53409;SDS011;66590;50.734;4.246;2023-08-30T00:42:11;10.57;;;8.32;;
53409;SDS011;66590;50.734;4.246;2023-08-30T00:44:38;10.70;;;7.63;;
53409;SDS011;66590;50.734;4.246;2023-08-30T00:47:05;9.90;;;7.60;;
53409;SDS011;66590;50.734;4.246;2023-08-30T00:49:33;9.45;;;7.35;;
53409;SDS011;66590;50.734;4.246;2023-08-30T00:52:00;8.82;;;7.30;;
53409;SDS011;66590;50.734;4.246;2023-08-30T00:54:31;11.48;;;8.18;;
53409;SDS011;66590;50.734;4.246;2023-08-30T00:56:58;11.23;;;8.27;;
53409;SDS011;66590;50.734;4.246;2023-08-30T00:59:27;12.82;;;8.40;;
53409;SDS011;66590;50.734;4.246;2023-08-30T01:01:56;9.65;;;8.57;;
53409;SDS011;66590;50.734;4.246;2023-08-30T01:04:23;9.23;;;8.00;;
53409;SDS011;66590;50.734;4.246;2023-08-30T01:06:51;13.00;;;9.18;;
53409;SDS011;66590;50.734;4.246;2023-08-30T01:09:18;9.55;;;8.43;;
53409;SDS011;66590;50.734;4.246;2023-08-30T01:11:48;10.55;;;8.63;;
53409;SDS011;66590;50.734;4.246;2023-08-30T01:14:20;13.70;;;9.43;;
53409;SDS011;66590;50.734;4.246;2023-08-30T01:16:52;11.13;;;9.23;;
53409;SDS011;66590;50.734;4.246;2023-08-30T01:19:25;10.02;;;8.95;;
53409;SDS011;66590;50.734;4.246;2023-08-30T01:22:08;11.40;;;9.63;;
53409;SDS011;66590;50.734;4.246;2023-08-30T01:24:42;11.10;;;8.98;;
53409;SDS011;66590;50.734;4.246;2023-08-30T01:27:15;12.35;;;9.13;;
53409;SDS011;66590;50.734;4.246;2023-08-30T01:29:44;11.98;;;9.60;;
53409;SDS011;66590;50.734;4.246;2023-08-30T01:32:13;10.65;;;8.27;;
53409;SDS011;66590;50.734;4.246;2023-08-30T01:34:41;12.30;;;9.60;;
53409;SDS011;66590;50.734;4.246;2023-08-30T01:37:09;12.10;;;9.10;;
53409;SDS011;66590;50.734;4.246;2023-08-30T01:39:37;12.48;;;9.10;;
53409;SDS011;66590;50.734;4.246;2023-08-30T01:42:06;13.02;;;9.13;;
53409;SDS011;66590;50.734;4.246;2023-08-30T01:44:36;13.85;;;9.35;;
53409;SDS011;66590;50.734;4.246;2023-08-30T01:47:06;14.70;;;9.38;;
53409;SDS011;66590;50.734;4.246;2023-08-30T01:49:33;11.85;;;8.35;;
53409;SDS011;66590;50.734;4.246;2023-08-30T01:52:01;11.60;;;8.50;;
53409;SDS011;66590;50.734;4.246;2023-08-30T01:54:28;10.35;;;8.48;;
53409;SDS011;66590;50.734;4.246;2023-08-30T01:56:56;12.88;;;8.00;;
53409;SDS011;66590;50.734;4.246;2023-08-30T01:59:24;9.57;;;7.35;;
53409;SDS011;66590;50.734;4.246;2023-08-30T02:01:52;9.80;;;7.72;;
53409;SDS011;66590;50.734;4.246;2023-08-30T02:04:19;11.10;;;7.43;;
53409;SDS011;66590;50.734;4.246;2023-08-30T02:06:48;9.32;;;6.80;;
53409;SDS011;66590;50.734;4.246;2023-08-30T02:09:21;9.95;;;7.20;;
53409;SDS011;66590;50.734;4.246;2023-08-30T02:11:54;9.57;;;7.40;;
53409;SDS011;66590;50.734;4.246;2023-08-30T02:14:24;11.68;;;7.15;;
53409;SDS011;66590;50.734;4.246;2023-08-30T02:16:54;7.97;;;6.97;;
53409;SDS011;66590;50.734;4.246;2023-08-30T02:19:22;10.77;;;7.03;;
53409;SDS011;66590;50.734;4.246;2023-08-30T02:21:49;7.95;;;7.03;;
53409;SDS011;66590;50.734;4.246;2023-08-30T02:24:16;9.48;;;7.50;;
53409;SDS011;66590;50.734;4.246;2023-08-30T02:26:43;9.68;;;7.13;;
53409;SDS011;66590;50.734;4.246;2023-08-30T02:29:10;9.45;;;7.43;;
53409;SDS011;66590;50.734;4.246;2023-08-30T02:31:37;10.40;;;8.20;;
53409;SDS011;66590;50.734;4.246;2023-08-30T02:34:05;9.63;;;8.32;;
53409;SDS011;66590;50.734;4.246;2023-08-30T02:36:32;12.50;;;8.63;;
53409;SDS011;66590;50.734;4.246;2023-08-30T02:38:59;12.27;;;9.00;;
53409;SDS011;66590;50.734;4.246;2023-08-30T02:41:26;13.00;;;8.35;;
53409;SDS011;66590;50.734;4.246;2023-08-30T02:43:53;13.73;;;9.43;;
53409;SDS011;66590;50.734;4.246;2023-08-30T02:46:20;12.77;;;8.93;;
53409;SDS011;66590;50.734;4.246;2023-08-30T02:48:47;15.05;;;9.30;;
53409;SDS011;66590;50.734;4.246;2023-08-30T02:51:15;15.13;;;9.30;;
53409;SDS011;66590;50.734;4.246;2023-08-30T02:53:42;14.70;;;9.57;;
53409;SDS011;66590;50.734;4.246;2023-08-30T02:56:09;12.95;;;9.63;;
53409;SDS011;66590;50.734;4.246;2023-08-30T02:58:36;14.38;;;9.52;;
53409;SDS011;66590;50.734;4.246;2023-08-30T03:01:03;13.40;;;9.65;;
53409;SDS011;66590;50.734;4.246;2023-08-30T03:03:30;14.45;;;9.80;;
53409;SDS011;66590;50.734;4.246;2023-08-30T03:05:57;13.50;;;9.80;;
53409;SDS011;66590;50.734;4.246;2023-08-30T03:08:25;12.55;;;8.77;;
53409;SDS011;66590;50.734;4.246;2023-08-30T03:10:52;13.50;;;9.60;;
53409;SDS011;66590;50.734;4.246;2023-08-30T03:13:19;13.50;;;8.98;;
53409;SDS011;66590;50.734;4.246;2023-08-30T03:15:46;14.73;;;9.55;;
53409;SDS011;66590;50.734;4.246;2023-08-30T03:18:13;14.55;;;9.25;;
53409;SDS011;66590;50.734;4.246;2023-08-30T03:20:40;16.13;;;10.48;;
53409;SDS011;66590;50.734;4.246;2023-08-30T03:23:07;16.38;;;9.90;;
53409;SDS011;66590;50.734;4.246;2023-08-30T03:25:35;23.10;;;10.13;;
53409;SDS011;66590;50.734;4.246;2023-08-30T03:28:02;18.20;;;10.40;;
53409;SDS011;66590;50.734;4.246;2023-08-30T03:30:30;17.75;;;9.98;;
53409;SDS011;66590;50.734;4.246;2023-08-30T03:32:57;18.30;;;10.35;;
53409;SDS011;66590;50.734;4.246;2023-08-30T03:35:24;17.25;;;9.68;;
53409;SDS011;66590;50.734;4.246;2023-08-30T03:37:51;19.50;;;9.98;;
53409;SDS011;66590;50.734;4.246;2023-08-30T03:40:18;15.25;;;9.38;;
53409;SDS011;66590;50.734;4.246;2023-08-30T03:42:46;15.77;;;9.20;;
53409;SDS011;66590;50.734;4.246;2023-08-30T03:45:13;17.73;;;8.73;;
53409;SDS011;66590;50.734;4.246;2023-08-30T03:47:40;19.52;;;8.98;;
53409;SDS011;66590;50.734;4.246;2023-08-30T03:50:07;13.30;;;8.73;;
53409;SDS011;66590;50.734;4.246;2023-08-30T03:52:34;12.75;;;9.00;;
53409;SDS011;66590;50.734;4.246;2023-08-30T03:55:01;12.23;;;8.25;;
53409;SDS011;66590;50.734;4.246;2023-08-30T03:57:28;11.85;;;8.15;;
53409;SDS011;66590;50.734;4.246;2023-08-30T03:59:57;14.32;;;8.40;;
53409;SDS011;66590;50.734;4.246;2023-08-30T04:02:23;11.80;;;8.38;;
53409;SDS011;66590;50.734;4.246;2023-08-30T04:04:50;14.10;;;8.82;;
53409;SDS011;66590;50.734;4.246;2023-08-30T04:07:17;16.05;;;8.95;;
53409;SDS011;66590;50.734;4.246;2023-08-30T04:09:44;12.65;;;8.50;;
53409;SDS011;66590;50.734;4.246;2023-08-30T04:12:11;11.40;;;7.75;;
53409;SDS011;66590;50.734;4.246;2023-08-30T04:14:38;13.80;;;8.65;;
53409;SDS011;66590;50.734;4.246;2023-08-30T04:17:06;15.98;;;8.85;;
53409;SDS011;66590;50.734;4.246;2023-08-30T04:19:33;12.73;;;8.35;;
53409;SDS011;66590;50.734;4.246;2023-08-30T04:22:00;14.82;;;8.98;;
53409;SDS011;66590;50.734;4.246;2023-08-30T04:24:27;14.00;;;9.15;;
53409;SDS011;66590;50.734;4.246;2023-08-30T04:26:54;17.25;;;10.00;;
53409;SDS011;66590;50.734;4.246;2023-08-30T04:29:21;21.02;;;11.80;;
53409;SDS011;66590;50.734;4.246;2023-08-30T04:31:48;21.60;;;11.93;;
53409;SDS011;66590;50.734;4.246;2023-08-30T04:34:16;20.30;;;11.05;;
53409;SDS011;66590;50.734;4.246;2023-08-30T04:36:43;21.48;;;11.75;;
53409;SDS011;66590;50.734;4.246;2023-08-30T04:39:10;16.52;;;8.80;;
53409;SDS011;66590;50.734;4.246;2023-08-30T04:41:38;23.83;;;11.75;;
53409;SDS011;66590;50.734;4.246;2023-08-30T04:44:05;21.67;;;11.15;;
53409;SDS011;66590;50.734;4.246;2023-08-30T04:46:32;19.08;;;10.52;;
53409;SDS011;66590;50.734;4.246;2023-08-30T04:48:59;19.00;;;10.25;;
53409;SDS011;66590;50.734;4.246;2023-08-30T04:51:27;15.43;;;9.80;;
53409;SDS011;66590;50.734;4.246;2023-08-30T04:53:54;17.15;;;10.27;;
53409;SDS011;66590;50.734;4.246;2023-08-30T04:56:21;17.17;;;11.05;;
53409;SDS011;66590;50.734;4.246;2023-08-30T04:58:48;19.90;;;12.05;;
53409;SDS011;66590;50.734;4.246;2023-08-30T05:01:15;26.75;;;14.32;;
53409;SDS011;66590;50.734;4.246;2023-08-30T05:03:42;29.42;;;15.38;;
53409;SDS011;66590;50.734;4.246;2023-08-30T05:06:09;36.30;;;16.85;;
53409;SDS011;66590;50.734;4.246;2023-08-30T05:08:38;33.78;;;15.73;;
53409;SDS011;66590;50.734;4.246;2023-08-30T05:11:05;29.35;;;15.32;;
53409;SDS011;66590;50.734;4.246;2023-08-30T05:13:32;22.98;;;12.80;;
53409;SDS011;66590;50.734;4.246;2023-08-30T05:15:59;22.13;;;12.38;;
53409;SDS011;66590;50.734;4.246;2023-08-30T05:18:26;20.20;;;11.77;;
53409;SDS011;66590;50.734;4.246;2023-08-30T05:20:52;17.98;;;12.18;;
53409;SDS011;66590;50.734;4.246;2023-08-30T05:23:19;16.77;;;11.82;;
53409;SDS011;66590;50.734;4.246;2023-08-30T05:25:48;18.17;;;12.02;;
53409;SDS011;66590;50.734;4.246;2023-08-30T05:28:15;17.60;;;12.15;;
53409;SDS011;66590;50.734;4.246;2023-08-30T05:30:42;17.30;;;11.85;;
53409;SDS011;66590;50.734;4.246;2023-08-30T05:33:10;16.23;;;11.70;;
53409;SDS011;66590;50.734;4.246;2023-08-30T05:35:37;17.88;;;11.70;;
53409;SDS011;66590;50.734;4.246;2023-08-30T05:38:04;17.42;;;10.77;;
53409;SDS011;66590;50.734;4.246;2023-08-30T05:40:32;12.75;;;11.02;;
53409;SDS011;66590;50.734;4.246;2023-08-30T05:43:00;13.13;;;10.48;;
53409;SDS011;66590;50.734;4.246;2023-08-30T05:45:27;18.58;;;10.93;;
53409;SDS011;66590;50.734;4.246;2023-08-30T05:47:54;12.60;;;10.02;;
53409;SDS011;66590;50.734;4.246;2023-08-30T05:50:21;14.35;;;10.18;;
53409;SDS011;66590;50.734;4.246;2023-08-30T05:52:48;12.15;;;8.90;;
53409;SDS011;66590;50.734;4.246;2023-08-30T05:55:15;13.73;;;9.07;;
53409;SDS011;66590;50.734;4.246;2023-08-30T05:57:42;10.63;;;8.90;;
53409;SDS011;66590;50.734;4.246;2023-08-30T06:00:11;12.48;;;8.55;;
53409;SDS011;66590;50.734;4.246;2023-08-30T06:02:39;12.27;;;9.23;;
53409;SDS011;66590;50.734;4.246;2023-08-30T06:05:06;12.57;;;9.35;;
53409;SDS011;66590;50.734;4.246;2023-08-30T06:07:34;12.70;;;10.05;;
53409;SDS011;66590;50.734;4.246;2023-08-30T06:10:01;11.73;;;9.32;;
53409;SDS011;66590;50.734;4.246;2023-08-30T06:12:29;14.77;;;9.45;;
53409;SDS011;66590;50.734;4.246;2023-08-30T06:14:55;17.77;;;9.07;;
53409;SDS011;66590;50.734;4.246;2023-08-30T06:17:24;15.98;;;8.43;;
53409;SDS011;66590;50.734;4.246;2023-08-30T06:19:51;13.18;;;9.40;;
53409;SDS011;66590;50.734;4.246;2023-08-30T06:22:18;12.52;;;9.82;;
53409;SDS011;66590;50.734;4.246;2023-08-30T06:24:45;12.98;;;9.52;;
53409;SDS011;66590;50.734;4.246;2023-08-30T06:27:12;15.02;;;9.73;;
53409;SDS011;66590;50.734;4.246;2023-08-30T06:29:39;18.40;;;10.05;;
53409;SDS011;66590;50.734;4.246;2023-08-30T06:32:06;11.75;;;10.00;;
53409;SDS011;66590;50.734;4.246;2023-08-30T06:34:34;19.63;;;10.07;;
53409;SDS011;66590;50.734;4.246;2023-08-30T06:37:01;11.98;;;10.35;;
53409;SDS011;66590;50.734;4.246;2023-08-30T06:39:32;11.93;;;9.55;;
53409;SDS011;66590;50.734;4.246;2023-08-30T06:41:59;13.60;;;9.77;;
53409;SDS011;66590;50.734;4.246;2023-08-30T06:44:26;15.95;;;9.55;;
53409;SDS011;66590;50.734;4.246;2023-08-30T06:46:53;14.00;;;9.50;;
53409;SDS011;66590;50.734;4.246;2023-08-30T06:49:20;13.30;;;8.73;;
53409;SDS011;66590;50.734;4.246;2023-08-30T06:51:48;17.02;;;10.10;;
53409;SDS011;66590;50.734;4.246;2023-08-30T06:54:15;13.38;;;9.82;;
53409;SDS011;66590;50.734;4.246;2023-08-30T06:56:45;18.02;;;10.77;;
53409;SDS011;66590;50.734;4.246;2023-08-30T06:59:23;16.15;;;10.57;;
53409;SDS011;66590;50.734;4.246;2023-08-30T07:01:50;11.48;;;9.57;;
53409;SDS011;66590;50.734;4.246;2023-08-30T07:04:17;14.63;;;9.95;;
53409;SDS011;66590;50.734;4.246;2023-08-30T07:06:44;13.88;;;10.27;;
53409;SDS011;66590;50.734;4.246;2023-08-30T07:09:12;14.73;;;11.20;;
53409;SDS011;66590;50.734;4.246;2023-08-30T07:11:41;12.95;;;10.32;;
53409;SDS011;66590;50.734;4.246;2023-08-30T07:14:08;13.10;;;10.05;;
53409;SDS011;66590;50.734;4.246;2023-08-30T07:16:35;12.60;;;9.68;;
53409;SDS011;66590;50.734;4.246;2023-08-30T07:19:02;14.30;;;9.82;;
53409;SDS011;66590;50.734;4.246;2023-08-30T07:21:29;13.20;;;9.45;;
53409;SDS011;66590;50.734;4.246;2023-08-30T07:23:56;13.02;;;9.73;;
53409;SDS011;66590;50.734;4.246;2023-08-30T07:26:24;11.45;;;8.88;;
53409;SDS011;66590;50.734;4.246;2023-08-30T07:28:51;14.07;;;9.25;;
53409;SDS011;66590;50.734;4.246;2023-08-30T07:31:18;12.82;;;8.82;;
53409;SDS011;66590;50.734;4.246;2023-08-30T07:33:45;11.40;;;9.13;;
53409;SDS011;66590;50.734;4.246;2023-08-30T07:36:12;13.20;;;9.52;;
53409;SDS011;66590;50.734;4.246;2023-08-30T07:38:39;11.48;;;9.52;;
53409;SDS011;66590;50.734;4.246;2023-08-30T07:41:06;12.38;;;9.30;;
53409;SDS011;66590;50.734;4.246;2023-08-30T07:43:34;11.43;;;8.93;;
53409;SDS011;66590;50.734;4.246;2023-08-30T07:46:01;13.10;;;9.10;;
53409;SDS011;66590;50.734;4.246;2023-08-30T07:48:28;13.88;;;8.75;;
53409;SDS011;66590;50.734;4.246;2023-08-30T07:50:55;10.68;;;9.35;;
53409;SDS011;66590;50.734;4.246;2023-08-30T07:53:22;11.15;;;8.73;;
53409;SDS011;66590;50.734;4.246;2023-08-30T07:55:49;11.50;;;8.95;;
53409;SDS011;66590;50.734;4.246;2023-08-30T07:58:17;12.88;;;9.07;;
53409;SDS011;66590;50.734;4.246;2023-08-30T08:00:45;14.02;;;9.25;;
53409;SDS011;66590;50.734;4.246;2023-08-30T08:03:16;13.48;;;9.02;;
53409;SDS011;66590;50.734;4.246;2023-08-30T08:05:43;14.93;;;9.55;;
53409;SDS011;66590;50.734;4.246;2023-08-30T08:08:10;14.68;;;8.18;;
53409;SDS011;66590;50.734;4.246;2023-08-30T08:10:37;13.45;;;8.00;;
53409;SDS011;66590;50.734;4.246;2023-08-30T08:13:04;14.02;;;8.30;;
53409;SDS011;66590;50.734;4.246;2023-08-30T08:15:31;11.80;;;7.90;;
53409;SDS011;66590;50.734;4.246;2023-08-30T08:18:00;11.38;;;7.22;;
53409;SDS011;66590;50.734;4.246;2023-08-30T08:20:28;11.15;;;6.90;;
53409;SDS011;66590;50.734;4.246;2023-08-30T08:22:55;12.25;;;7.97;;
53409;SDS011;66590;50.734;4.246;2023-08-30T08:25:22;13.63;;;7.40;;
53409;SDS011;66590;50.734;4.246;2023-08-30T08:27:49;10.23;;;5.88;;
53409;SDS011;66590;50.734;4.246;2023-08-30T08:30:16;8.60;;;5.60;;
53409;SDS011;66590;50.734;4.246;2023-08-30T08:32:45;6.25;;;5.50;;
53409;SDS011;66590;50.734;4.246;2023-08-30T08:35:13;9.82;;;6.30;;
53409;SDS011;66590;50.734;4.246;2023-08-30T08:37:40;8.02;;;5.32;;
53409;SDS011;66590;50.734;4.246;2023-08-30T08:40:08;8.10;;;5.97;;
53409;SDS011;66590;50.734;4.246;2023-08-30T08:42:36;7.75;;;6.35;;
53409;SDS011;66590;50.734;4.246;2023-08-30T08:45:03;8.05;;;6.72;;
53409;SDS011;66590;50.734;4.246;2023-08-30T08:47:31;10.05;;;6.90;;
53409;SDS011;66590;50.734;4.246;2023-08-30T08:49:58;9.15;;;7.10;;
53409;SDS011;66590;50.734;4.246;2023-08-30T08:52:27;10.10;;;8.00;;
53409;SDS011;66590;50.734;4.246;2023-08-30T08:55:01;9.35;;;7.97;;
53409;SDS011;66590;50.734;4.246;2023-08-30T08:57:29;8.52;;;7.30;;
53409;SDS011;66590;50.734;4.246;2023-08-30T08:59:56;9.57;;;8.27;;
53409;SDS011;66590;50.734;4.246;2023-08-30T09:02:23;8.10;;;7.30;;
53409;SDS011;66590;50.734;4.246;2023-08-30T09:04:50;9.07;;;8.18;;
53409;SDS011;66590;50.734;4.246;2023-08-30T09:07:19;11.70;;;8.75;;
53409;SDS011;66590;50.734;4.246;2023-08-30T09:09:47;10.65;;;8.40;;
53409;SDS011;66590;50.734;4.246;2023-08-30T09:12:14;8.88;;;7.97;;
53409;SDS011;66590;50.734;4.246;2023-08-30T09:14:41;7.53;;;6.80;;
53409;SDS011;66590;50.734;4.246;2023-08-30T09:17:19;8.15;;;7.35;;
53409;SDS011;66590;50.734;4.246;2023-08-30T09:19:46;8.45;;;7.30;;
53409;SDS011;66590;50.734;4.246;2023-08-30T09:22:13;9.82;;;7.45;;
53409;SDS011;66590;50.734;4.246;2023-08-30T09:24:40;8.63;;;7.20;;
53409;SDS011;66590;50.734;4.246;2023-08-30T09:27:09;8.90;;;7.70;;
53409;SDS011;66590;50.734;4.246;2023-08-30T09:29:36;8.45;;;6.53;;
53409;SDS011;66590;50.734;4.246;2023-08-30T09:32:03;7.20;;;6.28;;
53409;SDS011;66590;50.734;4.246;2023-08-30T09:34:30;7.93;;;7.10;;
53409;SDS011;66590;50.734;4.246;2023-08-30T09:36:57;6.78;;;5.88;;
53409;SDS011;66590;50.734;4.246;2023-08-30T09:39:24;9.25;;;6.55;;
53409;SDS011;66590;50.734;4.246;2023-08-30T09:41:53;6.18;;;5.57;;
53409;SDS011;66590;50.734;4.246;2023-08-30T09:44:22;7.15;;;6.45;;
53409;SDS011;66590;50.734;4.246;2023-08-30T09:46:49;7.43;;;6.63;;
53409;SDS011;66590;50.734;4.246;2023-08-30T09:49:19;7.28;;;6.57;;
53409;SDS011;66590;50.734;4.246;2023-08-30T09:51:50;6.13;;;5.53;;
53409;SDS011;66590;50.734;4.246;2023-08-30T09:54:18;5.75;;;5.25;;
53409;SDS011;66590;50.734;4.246;2023-08-30T09:57:04;6.75;;;5.63;;
53409;SDS011;66590;50.734;4.246;2023-08-30T09:59:33;7.00;;;5.70;;
53409;SDS011;66590;50.734;4.246;2023-08-30T10:02:01;6.28;;;5.68;;
53409;SDS011;66590;50.734;4.246;2023-08-30T10:04:29;6.78;;;5.85;;
53409;SDS011;66590;50.734;4.246;2023-08-30T10:06:57;7.70;;;6.18;;
53409;SDS011;66590;50.734;4.246;2023-08-30T10:09:25;8.00;;;6.85;;
53409;SDS011;66590;50.734;4.246;2023-08-30T10:11:52;9.35;;;7.70;;
53409;SDS011;66590;50.734;4.246;2023-08-30T10:14:20;10.48;;;8.05;;
53409;SDS011;66590;50.734;4.246;2023-08-30T10:16:49;8.80;;;7.90;;
53409;SDS011;66590;50.734;4.246;2023-08-30T10:19:21;10.43;;;9.10;;
53409;SDS011;66590;50.734;4.246;2023-08-30T10:21:51;9.32;;;8.32;;
53409;SDS011;66590;50.734;4.246;2023-08-30T10:24:25;11.85;;;8.82;;
53409;SDS011;66590;50.734;4.246;2023-08-30T10:27:03;9.75;;;8.75;;
53409;SDS011;66590;50.734;4.246;2023-08-30T10:29:33;10.48;;;8.70;;
53409;SDS011;66590;50.734;4.246;2023-08-30T10:32:03;11.77;;;9.85;;
53409;SDS011;66590;50.734;4.246;2023-08-30T10:34:31;12.00;;;10.02;;
53409;SDS011;66590;50.734;4.246;2023-08-30T10:36:59;13.57;;;10.20;;
53409;SDS011;66590;50.734;4.246;2023-08-30T10:39:33;13.02;;;10.55;;
53409;SDS011;66590;50.734;4.246;2023-08-30T10:42:06;11.07;;;9.57;;
53409;SDS011;66590;50.734;4.246;2023-08-30T10:44:34;11.60;;;9.63;;
53409;SDS011;66590;50.734;4.246;2023-08-30T10:47:11;13.70;;;9.77;;
53409;SDS011;66590;50.734;4.246;2023-08-30T10:49:46;11.90;;;10.48;;
53409;SDS011;66590;50.734;4.246;2023-08-30T10:52:13;11.05;;;8.95;;
53409;SDS011;66590;50.734;4.246;2023-08-30T10:54:40;11.98;;;8.80;;
53409;SDS011;66590;50.734;4.246;2023-08-30T10:57:12;15.15;;;8.80;;
53409;SDS011;66590;50.734;4.246;2023-08-30T10:59:40;8.77;;;7.88;;
53409;SDS011;66590;50.734;4.246;2023-08-30T11:02:15;10.65;;;8.63;;
53409;SDS011;66590;50.734;4.246;2023-08-30T11:04:42;10.05;;;9.02;;
53409;SDS011;66590;50.734;4.246;2023-08-30T11:07:11;9.13;;;8.05;;
53409;SDS011;66590;50.734;4.246;2023-08-30T11:09:39;9.52;;;8.50;;
53409;SDS011;66590;50.734;4.246;2023-08-30T11:12:06;10.10;;;8.32;;
53409;SDS011;66590;50.734;4.246;2023-08-30T11:14:33;13.27;;;8.90;;
53409;SDS011;66590;50.734;4.246;2023-08-30T11:17:00;17.27;;;9.48;;
53409;SDS011;66590;50.734;4.246;2023-08-30T11:19:30;9.05;;;7.65;;
53409;SDS011;66590;50.734;4.246;2023-08-30T11:21:57;9.50;;;7.35;;
53409;SDS011;66590;50.734;4.246;2023-08-30T11:24:24;10.02;;;7.28;;
53409;SDS011;66590;50.734;4.246;2023-08-30T11:26:54;7.80;;;3.58;;
53409;SDS011;66590;50.734;4.246;2023-08-30T11:29:21;5.22;;;3.10;;
53409;SDS011;66590;50.734;4.246;2023-08-30T11:31:48;8.82;;;3.47;;
53409;SDS011;66590;50.734;4.246;2023-08-30T11:34:15;11.82;;;3.38;;
53409;SDS011;66590;50.734;4.246;2023-08-30T11:36:47;9.43;;;3.47;;
53409;SDS011;66590;50.734;4.246;2023-08-30T11:39:16;7.18;;;3.67;;
53409;SDS011;66590;50.734;4.246;2023-08-30T11:41:43;8.10;;;3.30;;
53409;SDS011;66590;50.734;4.246;2023-08-30T11:44:10;7.68;;;3.30;;
53409;SDS011;66590;50.734;4.246;2023-08-30T11:46:38;10.02;;;3.53;;
53409;SDS011;66590;50.734;4.246;2023-08-30T11:49:05;8.40;;;3.35;;
53409;SDS011;66590;50.734;4.246;2023-08-30T11:51:32;9.52;;;3.92;;
53409;SDS011;66590;50.734;4.246;2023-08-30T11:54:01;9.40;;;3.65;;
53409;SDS011;66590;50.734;4.246;2023-08-30T11:56:29;12.00;;;3.60;;
53409;SDS011;66590;50.734;4.246;2023-08-30T11:58:57;10.15;;;3.60;;
53409;SDS011;66590;50.734;4.246;2023-08-30T12:01:24;9.25;;;3.38;;
53409;SDS011;66590;50.734;4.246;2023-08-30T12:03:51;8.15;;;3.22;;
53409;SDS011;66590;50.734;4.246;2023-08-30T12:06:18;9.65;;;3.75;;
53409;SDS011;66590;50.734;4.246;2023-08-30T12:08:45;12.82;;;3.78;;
53409;SDS011;66590;50.734;4.246;2023-08-30T12:11:19;7.18;;;3.40;;
53409;SDS011;66590;50.734;4.246;2023-08-30T12:13:47;11.23;;;3.28;;
53409;SDS011;66590;50.734;4.246;2023-08-30T12:16:17;7.80;;;3.15;;
53409;SDS011;66590;50.734;4.246;2023-08-30T12:18:44;5.45;;;2.72;;
53409;SDS011;66590;50.734;4.246;2023-08-30T12:21:12;9.48;;;3.03;;
53409;SDS011;66590;50.734;4.246;2023-08-30T12:23:40;5.95;;;2.60;;
53409;SDS011;66590;50.734;4.246;2023-08-30T12:26:07;9.85;;;3.42;;
53409;SDS011;66590;50.734;4.246;2023-08-30T12:28:37;8.63;;;3.03;;
53409;SDS011;66590;50.734;4.246;2023-08-30T12:31:05;9.38;;;3.55;;
53409;SDS011;66590;50.734;4.246;2023-08-30T12:33:32;6.40;;;2.40;;
53409;SDS011;66590;50.734;4.246;2023-08-30T12:36:00;5.95;;;2.50;;
53409;SDS011;66590;50.734;4.246;2023-08-30T12:38:27;7.10;;;2.63;;
53409;SDS011;66590;50.734;4.246;2023-08-30T12:40:54;6.30;;;2.78;;
53409;SDS011;66590;50.734;4.246;2023-08-30T12:43:22;7.60;;;2.53;;
53409;SDS011;66590;50.734;4.246;2023-08-30T12:45:51;9.25;;;2.70;;
53409;SDS011;66590;50.734;4.246;2023-08-30T12:48:19;10.30;;;2.30;;
53409;SDS011;66590;50.734;4.246;2023-08-30T12:50:47;4.97;;;2.72;;
53409;SDS011;66590;50.734;4.246;2023-08-30T12:53:14;4.50;;;2.20;;
53409;SDS011;66590;50.734;4.246;2023-08-30T12:55:41;8.70;;;2.47;;
53409;SDS011;66590;50.734;4.246;2023-08-30T12:58:08;10.35;;;2.65;;
53409;SDS011;66590;50.734;4.246;2023-08-30T13:00:35;5.57;;;2.45;;
53409;SDS011;66590;50.734;4.246;2023-08-30T13:03:04;5.78;;;2.13;;
53409;SDS011;66590;50.734;4.246;2023-08-30T13:05:31;6.15;;;2.30;;
53409;SDS011;66590;50.734;4.246;2023-08-30T13:07:58;6.88;;;2.55;;
53409;SDS011;66590;50.734;4.246;2023-08-30T13:10:25;6.60;;;2.00;;
53409;SDS011;66590;50.734;4.246;2023-08-30T13:12:53;6.50;;;1.85;;
53409;SDS011;66590;50.734;4.246;2023-08-30T13:15:20;6.43;;;1.92;;
53409;SDS011;66590;50.734;4.246;2023-08-30T13:17:47;5.05;;;2.33;;
53409;SDS011;66590;50.734;4.246;2023-08-30T13:20:15;5.75;;;2.35;;
53409;SDS011;66590;50.734;4.246;2023-08-30T13:22:42;7.85;;;2.58;;
53409;SDS011;66590;50.734;4.246;2023-08-30T13:25:09;7.65;;;2.17;;
53409;SDS011;66590;50.734;4.246;2023-08-30T13:27:36;7.90;;;2.53;;
53409;SDS011;66590;50.734;4.246;2023-08-30T13:30:03;4.18;;;1.60;;
53409;SDS011;66590;50.734;4.246;2023-08-30T13:32:31;4.45;;;2.22;;
53409;SDS011;66590;50.734;4.246;2023-08-30T13:34:58;4.05;;;1.80;;
53409;SDS011;66590;50.734;4.246;2023-08-30T13:37:26;4.50;;;1.40;;
53409;SDS011;66590;50.734;4.246;2023-08-30T13:39:53;6.35;;;1.88;;
53409;SDS011;66590;50.734;4.246;2023-08-30T13:42:20;4.93;;;2.00;;
53409;SDS011;66590;50.734;4.246;2023-08-30T13:44:50;6.50;;;2.15;;
53409;SDS011;66590;50.734;4.246;2023-08-30T13:47:18;7.20;;;2.17;;
53409;SDS011;66590;50.734;4.246;2023-08-30T13:49:45;6.13;;;2.00;;
53409;SDS011;66590;50.734;4.246;2023-08-30T13:52:12;6.88;;;2.00;;
53409;SDS011;66590;50.734;4.246;2023-08-30T13:54:41;7.63;;;2.00;;
53409;SDS011;66590;50.734;4.246;2023-08-30T13:57:08;5.88;;;2.33;;
53409;SDS011;66590;50.734;4.246;2023-08-30T13:59:35;6.22;;;2.28;;
53409;SDS011;66590;50.734;4.246;2023-08-30T14:02:02;6.28;;;2.40;;
53409;SDS011;66590;50.734;4.246;2023-08-30T14:04:29;8.00;;;2.80;;
53409;SDS011;66590;50.734;4.246;2023-08-30T14:06:56;7.55;;;2.55;;
53409;SDS011;66590;50.734;4.246;2023-08-30T14:09:23;6.05;;;2.30;;
53409;SDS011;66590;50.734;4.246;2023-08-30T14:11:52;3.67;;;1.85;;
53409;SDS011;66590;50.734;4.246;2023-08-30T14:14:19;6.45;;;2.28;;
53409;SDS011;66590;50.734;4.246;2023-08-30T14:16:46;3.47;;;1.70;;
53409;SDS011;66590;50.734;4.246;2023-08-30T14:19:14;5.15;;;2.28;;
53409;SDS011;66590;50.734;4.246;2023-08-30T14:21:42;6.90;;;2.13;;
53409;SDS011;66590;50.734;4.246;2023-08-30T14:24:09;8.07;;;2.50;;
53409;SDS011;66590;50.734;4.246;2023-08-30T14:26:36;3.65;;;2.08;;
53409;SDS011;66590;50.734;4.246;2023-08-30T14:29:04;3.70;;;2.20;;
53409;SDS011;66590;50.734;4.246;2023-08-30T14:31:31;8.18;;;2.60;;
53409;SDS011;66590;50.734;4.246;2023-08-30T14:33:58;7.30;;;2.40;;
53409;SDS011;66590;50.734;4.246;2023-08-30T14:36:25;3.75;;;2.03;;
53409;SDS011;66590;50.734;4.246;2023-08-30T14:38:52;7.05;;;1.90;;
53409;SDS011;66590;50.734;4.246;2023-08-30T14:41:19;4.90;;;1.98;;